Greenville Airport (GRE)
Greenville, IL
Field Elevation: 540
Lat: 38°50.00N  Long: 89°22.00W
CTAF/Unicom Freq: 123.0500
   
     For Weather-by-Phone, call (618) 664-1939
Weather Advisories
2023-04-01   13:05 Z
Altimeter 29.74" Hg
Wind 270° @ 24 KT
Gusts 29 KT
Visibility 10 SM
Temperature 5° C (41° F)
Dewpoint -3° C (27° F)
Relative Humidity 57%
Density Altitude --
Condensation Altitude 4,400 feet
Wind Chill: -1° C (30° F)
Wind and Runways
Indicated Runway = 27
Headwind = 24 kt
Crosswind = 0 kt
History
 
 
 
More Info
 
NOAA Forecast
 
Airport IQ 5010
(FLV) Sherman Airfield
(VLA) Vandalia
 
about Belfort Instrument
 
FAA Disclaimer: The data displayed is for advisory purposes only and is not to be used for flight planning or operations. For official data, please call (618) 664-1939 to hear the current automated AWOS voice message.
  METAR GRE 011305Z AUTO 27024G29KT 10 SM 05/M03 A2974